sensor_id;sensor_type;location;lat;lon;timestamp;P1;durP1;ratioP1;P2;durP2;ratioP2
1122;SDS011;548;48.778;9.252;2023-07-22T00:00:21;20.20;;;19.20;;
1122;SDS011;548;48.778;9.252;2023-07-22T00:02:48;19.87;;;18.70;;
1122;SDS011;548;48.778;9.252;2023-07-22T00:05:14;20.37;;;19.20;;
1122;SDS011;548;48.778;9.252;2023-07-22T00:07:48;20.87;;;19.70;;
1122;SDS011;548;48.778;9.252;2023-07-22T00:10:15;20.40;;;19.30;;
1122;SDS011;548;48.778;9.252;2023-07-22T00:12:42;20.23;;;19.23;;
1122;SDS011;548;48.778;9.252;2023-07-22T00:15:09;21.40;;;20.20;;
1122;SDS011;548;48.778;9.252;2023-07-22T00:17:37;19.30;;;18.40;;
1122;SDS011;548;48.778;9.252;2023-07-22T00:20:04;19.40;;;18.40;;
1122;SDS011;548;48.778;9.252;2023-07-22T00:22:31;20.13;;;18.97;;
1122;SDS011;548;48.778;9.252;2023-07-22T00:24:59;20.17;;;19.17;;
1122;SDS011;548;48.778;9.252;2023-07-22T00:27:26;20.60;;;19.40;;
1122;SDS011;548;48.778;9.252;2023-07-22T00:29:53;18.13;;;17.27;;
1122;SDS011;548;48.778;9.252;2023-07-22T00:32:20;18.33;;;17.20;;
1122;SDS011;548;48.778;9.252;2023-07-22T00:34:47;18.37;;;17.47;;
1122;SDS011;548;48.778;9.252;2023-07-22T00:37:13;18.33;;;17.20;;
1122;SDS011;548;48.778;9.252;2023-07-22T00:39:41;19.47;;;18.47;;
1122;SDS011;548;48.778;9.252;2023-07-22T00:42:09;18.73;;;17.83;;
1122;SDS011;548;48.778;9.252;2023-07-22T00:44:36;19.37;;;18.37;;
1122;SDS011;548;48.778;9.252;2023-07-22T00:47:03;19.60;;;18.70;;
1122;SDS011;548;48.778;9.252;2023-07-22T00:49:30;19.40;;;18.30;;
1122;SDS011;548;48.778;9.252;2023-07-22T00:51:58;20.43;;;19.33;;
1122;SDS011;548;48.778;9.252;2023-07-22T00:54:27;19.50;;;18.50;;
1122;SDS011;548;48.778;9.252;2023-07-22T00:56:54;19.53;;;18.63;;
1122;SDS011;548;48.778;9.252;2023-07-22T00:59:23;19.23;;;18.07;;
1122;SDS011;548;48.778;9.252;2023-07-22T01:01:50;19.57;;;18.47;;
1122;SDS011;548;48.778;9.252;2023-07-22T01:04:19;18.27;;;17.37;;
1122;SDS011;548;48.778;9.252;2023-07-22T01:06:47;19.17;;;18.07;;
1122;SDS011;548;48.778;9.252;2023-07-22T01:09:14;19.07;;;18.20;;
1122;SDS011;548;48.778;9.252;2023-07-22T01:11:41;19.67;;;18.50;;
1122;SDS011;548;48.778;9.252;2023-07-22T01:14:08;19.30;;;18.30;;
1122;SDS011;548;48.778;9.252;2023-07-22T01:16:36;18.93;;;17.93;;
1122;SDS011;548;48.778;9.252;2023-07-22T01:19:04;19.17;;;18.27;;
1122;SDS011;548;48.778;9.252;2023-07-22T01:21:31;18.93;;;17.93;;
1122;SDS011;548;48.778;9.252;2023-07-22T01:24:00;19.60;;;18.60;;
1122;SDS011;548;48.778;9.252;2023-07-22T01:26:27;19.20;;;18.30;;
1122;SDS011;548;48.778;9.252;2023-07-22T01:29:01;19.13;;;18.20;;
1122;SDS011;548;48.778;9.252;2023-07-22T01:31:29;19.67;;;18.73;;
1122;SDS011;548;48.778;9.252;2023-07-22T01:33:55;19.37;;;18.27;;
1122;SDS011;548;48.778;9.252;2023-07-22T01:36:23;19.60;;;18.60;;
1122;SDS011;548;48.778;9.252;2023-07-22T01:38:50;19.40;;;18.40;;
1122;SDS011;548;48.778;9.252;2023-07-22T01:41:18;19.47;;;18.53;;
1122;SDS011;548;48.778;9.252;2023-07-22T01:43:45;18.80;;;17.90;;
1122;SDS011;548;48.778;9.252;2023-07-22T01:46:12;19.80;;;18.80;;
1122;SDS011;548;48.778;9.252;2023-07-22T01:48:38;19.73;;;18.83;;
1122;SDS011;548;48.778;9.252;2023-07-22T01:51:05;19.40;;;18.50;;
1122;SDS011;548;48.778;9.252;2023-07-22T01:53:32;19.33;;;18.43;;
1122;SDS011;548;48.778;9.252;2023-07-22T01:55:59;18.97;;;18.00;;
1122;SDS011;548;48.778;9.252;2023-07-22T01:58:27;20.10;;;19.10;;
1122;SDS011;548;48.778;9.252;2023-07-22T02:00:54;19.43;;;18.43;;
1122;SDS011;548;48.778;9.252;2023-07-22T02:03:20;19.80;;;18.90;;
1122;SDS011;548;48.778;9.252;2023-07-22T02:05:48;20.90;;;19.80;;
1122;SDS011;548;48.778;9.252;2023-07-22T02:08:14;20.00;;;19.00;;
1122;SDS011;548;48.778;9.252;2023-07-22T02:10:41;19.67;;;18.77;;
1122;SDS011;548;48.778;9.252;2023-07-22T02:13:08;19.93;;;18.93;;
1122;SDS011;548;48.778;9.252;2023-07-22T02:15:37;20.70;;;19.47;;
1122;SDS011;548;48.778;9.252;2023-07-22T02:18:04;20.03;;;19.03;;
1122;SDS011;548;48.778;9.252;2023-07-22T02:20:31;19.70;;;18.70;;
1122;SDS011;548;48.778;9.252;2023-07-22T02:22:57;20.30;;;19.20;;
1122;SDS011;548;48.778;9.252;2023-07-22T02:25:24;19.87;;;18.97;;
1122;SDS011;548;48.778;9.252;2023-07-22T02:27:51;19.67;;;18.50;;
1122;SDS011;548;48.778;9.252;2023-07-22T02:30:17;20.53;;;19.43;;
1122;SDS011;548;48.778;9.252;2023-07-22T02:32:46;20.47;;;19.37;;
1122;SDS011;548;48.778;9.252;2023-07-22T02:35:12;20.90;;;19.90;;
1122;SDS011;548;48.778;9.252;2023-07-22T02:37:39;19.60;;;18.70;;
1122;SDS011;548;48.778;9.252;2023-07-22T02:40:06;20.50;;;19.60;;
1122;SDS011;548;48.778;9.252;2023-07-22T02:42:35;19.80;;;18.90;;
1122;SDS011;548;48.778;9.252;2023-07-22T02:45:02;19.70;;;18.80;;
1122;SDS011;548;48.778;9.252;2023-07-22T02:47:30;20.10;;;18.90;;
1122;SDS011;548;48.778;9.252;2023-07-22T02:49:59;19.27;;;18.40;;
1122;SDS011;548;48.778;9.252;2023-07-22T02:52:26;21.33;;;19.87;;
1122;SDS011;548;48.778;9.252;2023-07-22T02:55:07;22.73;;;21.23;;
1122;SDS011;548;48.778;9.252;2023-07-22T02:57:35;22.60;;;21.20;;
1122;SDS011;548;48.778;9.252;2023-07-22T03:00:03;24.13;;;22.43;;
1122;SDS011;548;48.778;9.252;2023-07-22T03:02:33;23.90;;;22.47;;
1122;SDS011;548;48.778;9.252;2023-07-22T03:05:01;24.10;;;22.27;;
1122;SDS011;548;48.778;9.252;2023-07-22T03:07:31;22.30;;;20.87;;
1122;SDS011;548;48.778;9.252;2023-07-22T03:09:58;22.13;;;20.83;;
1122;SDS011;548;48.778;9.252;2023-07-22T03:12:25;20.30;;;19.17;;
1122;SDS011;548;48.778;9.252;2023-07-22T03:14:52;21.37;;;20.10;;
1122;SDS011;548;48.778;9.252;2023-07-22T03:17:19;21.30;;;19.90;;
1122;SDS011;548;48.778;9.252;2023-07-22T03:19:46;21.43;;;20.13;;
1122;SDS011;548;48.778;9.252;2023-07-22T03:22:15;22.17;;;20.93;;
1122;SDS011;548;48.778;9.252;2023-07-22T03:24:43;21.70;;;20.30;;
1122;SDS011;548;48.778;9.252;2023-07-22T03:27:10;21.37;;;20.27;;
1122;SDS011;548;48.778;9.252;2023-07-22T03:29:37;20.97;;;19.97;;
1122;SDS011;548;48.778;9.252;2023-07-22T03:32:04;21.07;;;19.97;;
1122;SDS011;548;48.778;9.252;2023-07-22T03:34:31;21.00;;;19.90;;
1122;SDS011;548;48.778;9.252;2023-07-22T03:36:58;20.60;;;19.60;;
1122;SDS011;548;48.778;9.252;2023-07-22T03:39:26;20.67;;;19.47;;
1122;SDS011;548;48.778;9.252;2023-07-22T03:41:53;20.30;;;19.30;;
1122;SDS011;548;48.778;9.252;2023-07-22T03:44:20;20.00;;;18.80;;
1122;SDS011;548;48.778;9.252;2023-07-22T03:46:46;19.00;;;17.87;;
1122;SDS011;548;48.778;9.252;2023-07-22T03:49:13;19.30;;;18.40;;
1122;SDS011;548;48.778;9.252;2023-07-22T03:51:40;19.93;;;18.93;;
1122;SDS011;548;48.778;9.252;2023-07-22T03:54:06;19.57;;;18.57;;
1122;SDS011;548;48.778;9.252;2023-07-22T03:56:35;20.13;;;19.13;;
1122;SDS011;548;48.778;9.252;2023-07-22T03:59:03;20.30;;;19.30;;
1122;SDS011;548;48.778;9.252;2023-07-22T04:01:30;19.40;;;18.47;;
1122;SDS011;548;48.778;9.252;2023-07-22T04:03:57;19.33;;;18.40;;
1122;SDS011;548;48.778;9.252;2023-07-22T04:06:24;19.57;;;18.57;;
1122;SDS011;548;48.778;9.252;2023-07-22T04:08:51;19.33;;;18.43;;
1122;SDS011;548;48.778;9.252;2023-07-22T04:11:18;18.33;;;17.43;;
1122;SDS011;548;48.778;9.252;2023-07-22T04:13:46;18.40;;;17.50;;
1122;SDS011;548;48.778;9.252;2023-07-22T04:16:13;17.57;;;16.77;;
1122;SDS011;548;48.778;9.252;2023-07-22T04:18:40;18.47;;;17.57;;
1122;SDS011;548;48.778;9.252;2023-07-22T04:21:06;18.23;;;17.23;;
1122;SDS011;548;48.778;9.252;2023-07-22T04:23:32;18.47;;;17.63;;
1122;SDS011;548;48.778;9.252;2023-07-22T04:26:01;18.77;;;17.67;;
1122;SDS011;548;48.778;9.252;2023-07-22T04:28:32;19.40;;;18.30;;
1122;SDS011;548;48.778;9.252;2023-07-22T04:31:00;18.93;;;18.03;;
1122;SDS011;548;48.778;9.252;2023-07-22T04:33:27;18.93;;;18.03;;
1122;SDS011;548;48.778;9.252;2023-07-22T04:35:55;19.53;;;18.63;;
1122;SDS011;548;48.778;9.252;2023-07-22T04:38:23;19.57;;;18.57;;
1122;SDS011;548;48.778;9.252;2023-07-22T04:40:50;17.60;;;16.90;;
1122;SDS011;548;48.778;9.252;2023-07-22T04:43:17;18.73;;;17.83;;
1122;SDS011;548;48.778;9.252;2023-07-22T04:45:44;17.97;;;17.17;;
1122;SDS011;548;48.778;9.252;2023-07-22T04:48:14;17.60;;;16.80;;
1122;SDS011;548;48.778;9.252;2023-07-22T04:50:41;17.80;;;16.90;;
1122;SDS011;548;48.778;9.252;2023-07-22T04:53:10;17.40;;;16.50;;
1122;SDS011;548;48.778;9.252;2023-07-22T04:55:38;16.77;;;15.97;;
1122;SDS011;548;48.778;9.252;2023-07-22T04:58:04;17.00;;;15.80;;
1122;SDS011;548;48.778;9.252;2023-07-22T05:00:31;16.17;;;15.37;;
1122;SDS011;548;48.778;9.252;2023-07-22T05:02:58;17.40;;;16.53;;
1122;SDS011;548;48.778;9.252;2023-07-22T05:05:27;18.37;;;17.47;;
1122;SDS011;548;48.778;9.252;2023-07-22T05:07:54;16.83;;;15.87;;
1122;SDS011;548;48.778;9.252;2023-07-22T05:10:22;16.67;;;15.87;;
1122;SDS011;548;48.778;9.252;2023-07-22T05:12:48;16.30;;;15.40;;
1122;SDS011;548;48.778;9.252;2023-07-22T05:15:15;16.57;;;15.77;;
1122;SDS011;548;48.778;9.252;2023-07-22T05:17:42;16.10;;;14.77;;
1122;SDS011;548;48.778;9.252;2023-07-22T05:20:09;14.53;;;13.97;;
1122;SDS011;548;48.778;9.252;2023-07-22T05:22:38;15.50;;;14.80;;
1122;SDS011;548;48.778;9.252;2023-07-22T05:25:06;15.50;;;14.80;;
1122;SDS011;548;48.778;9.252;2023-07-22T05:27:34;14.90;;;14.10;;
1122;SDS011;548;48.778;9.252;2023-07-22T05:30:01;14.83;;;14.23;;
1122;SDS011;548;48.778;9.252;2023-07-22T05:32:28;15.80;;;14.90;;
1122;SDS011;548;48.778;9.252;2023-07-22T05:34:55;13.53;;;13.03;;
1122;SDS011;548;48.778;9.252;2023-07-22T05:37:22;14.50;;;13.90;;
1122;SDS011;548;48.778;9.252;2023-07-22T05:39:50;16.13;;;15.03;;
1122;SDS011;548;48.778;9.252;2023-07-22T05:42:17;14.87;;;14.17;;
1122;SDS011;548;48.778;9.252;2023-07-22T05:44:44;15.83;;;14.90;;
1122;SDS011;548;48.778;9.252;2023-07-22T05:47:11;15.07;;;14.10;;
1122;SDS011;548;48.778;9.252;2023-07-22T05:49:38;13.90;;;13.30;;
1122;SDS011;548;48.778;9.252;2023-07-22T05:52:05;14.93;;;14.27;;
1122;SDS011;548;48.778;9.252;2023-07-22T05:54:32;14.80;;;14.10;;
1122;SDS011;548;48.778;9.252;2023-07-22T05:57:00;14.60;;;13.90;;
1122;SDS011;548;48.778;9.252;2023-07-22T05:59:28;15.27;;;14.57;;
1122;SDS011;548;48.778;9.252;2023-07-22T06:01:55;15.17;;;14.40;;
1122;SDS011;548;48.778;9.252;2023-07-22T06:04:22;13.33;;;12.73;;
1122;SDS011;548;48.778;9.252;2023-07-22T06:06:49;14.03;;;13.33;;
1122;SDS011;548;48.778;9.252;2023-07-22T06:09:16;13.60;;;13.00;;
1122;SDS011;548;48.778;9.252;2023-07-22T06:11:42;14.10;;;13.40;;
1122;SDS011;548;48.778;9.252;2023-07-22T06:14:10;13.57;;;12.80;;
1122;SDS011;548;48.778;9.252;2023-07-22T06:16:37;14.13;;;13.53;;
1122;SDS011;548;48.778;9.252;2023-07-22T06:19:04;13.80;;;13.30;;
1122;SDS011;548;48.778;9.252;2023-07-22T06:21:30;13.60;;;13.03;;
1122;SDS011;548;48.778;9.252;2023-07-22T06:23:57;14.70;;;13.90;;
1122;SDS011;548;48.778;9.252;2023-07-22T06:26:24;14.47;;;13.70;;
1122;SDS011;548;48.778;9.252;2023-07-22T06:28:51;14.17;;;13.57;;
1122;SDS011;548;48.778;9.252;2023-07-22T06:31:19;14.17;;;13.47;;
1122;SDS011;548;48.778;9.252;2023-07-22T06:33:46;14.50;;;13.90;;
1122;SDS011;548;48.778;9.252;2023-07-22T06:36:13;14.27;;;13.63;;
1122;SDS011;548;48.778;9.252;2023-07-22T06:38:41;13.97;;;13.27;;
1122;SDS011;548;48.778;9.252;2023-07-22T06:41:08;14.23;;;13.53;;
1122;SDS011;548;48.778;9.252;2023-07-22T06:43:35;14.83;;;14.13;;
1122;SDS011;548;48.778;9.252;2023-07-22T06:46:01;14.33;;;13.63;;
1122;SDS011;548;48.778;9.252;2023-07-22T06:48:29;14.37;;;13.77;;
1122;SDS011;548;48.778;9.252;2023-07-22T06:50:56;13.60;;;13.00;;
1122;SDS011;548;48.778;9.252;2023-07-22T06:53:23;13.30;;;12.70;;
1122;SDS011;548;48.778;9.252;2023-07-22T06:55:50;13.37;;;12.77;;
1122;SDS011;548;48.778;9.252;2023-07-22T06:58:17;13.97;;;13.20;;
1122;SDS011;548;48.778;9.252;2023-07-22T07:00:44;13.43;;;12.70;;
1122;SDS011;548;48.778;9.252;2023-07-22T07:03:10;13.90;;;13.30;;
1122;SDS011;548;48.778;9.252;2023-07-22T07:05:39;13.48;;;12.77;;
1122;SDS011;548;48.778;9.252;2023-07-22T07:08:06;14.63;;;13.83;;
1122;SDS011;548;48.778;9.252;2023-07-22T07:10:36;13.67;;;12.90;;
1122;SDS011;548;48.778;9.252;2023-07-22T07:13:04;13.40;;;12.80;;
1122;SDS011;548;48.778;9.252;2023-07-22T07:15:30;13.60;;;13.10;;
1122;SDS011;548;48.778;9.252;2023-07-22T07:17:57;14.60;;;14.00;;
1122;SDS011;548;48.778;9.252;2023-07-22T07:20:24;13.67;;;12.87;;
1122;SDS011;548;48.778;9.252;2023-07-22T07:22:52;13.90;;;12.93;;
1122;SDS011;548;48.778;9.252;2023-07-22T07:25:19;13.90;;;13.30;;
1122;SDS011;548;48.778;9.252;2023-07-22T07:27:45;13.37;;;12.87;;
1122;SDS011;548;48.778;9.252;2023-07-22T07:30:12;13.53;;;13.00;;
1122;SDS011;548;48.778;9.252;2023-07-22T07:32:39;14.07;;;13.37;;
1122;SDS011;548;48.778;9.252;2023-07-22T07:35:06;12.80;;;12.30;;
1122;SDS011;548;48.778;9.252;2023-07-22T07:37:34;13.87;;;13.00;;
1122;SDS011;548;48.778;9.252;2023-07-22T07:40:02;12.67;;;12.17;;
1122;SDS011;548;48.778;9.252;2023-07-22T07:42:29;13.47;;;12.93;;
1122;SDS011;548;48.778;9.252;2023-07-22T07:44:56;13.67;;;13.07;;
1122;SDS011;548;48.778;9.252;2023-07-22T07:47:22;13.23;;;12.73;;
1122;SDS011;548;48.778;9.252;2023-07-22T07:49:49;13.77;;;13.10;;
1122;SDS011;548;48.778;9.252;2023-07-22T07:52:16;14.30;;;13.60;;
1122;SDS011;548;48.778;9.252;2023-07-22T07:54:43;13.90;;;13.07;;
1122;SDS011;548;48.778;9.252;2023-07-22T07:57:11;13.37;;;12.77;;
1122;SDS011;548;48.778;9.252;2023-07-22T07:59:39;13.00;;;12.43;;
1122;SDS011;548;48.778;9.252;2023-07-22T08:02:06;13.60;;;13.00;;
1122;SDS011;548;48.778;9.252;2023-07-22T08:04:35;13.60;;;12.90;;
1122;SDS011;548;48.778;9.252;2023-07-22T08:07:02;13.00;;;12.50;;
1122;SDS011;548;48.778;9.252;2023-07-22T08:09:29;13.40;;;12.80;;
1122;SDS011;548;48.778;9.252;2023-07-22T08:11:56;13.00;;;12.40;;
1122;SDS011;548;48.778;9.252;2023-07-22T08:14:24;12.97;;;12.47;;
1122;SDS011;548;48.778;9.252;2023-07-22T08:16:51;13.47;;;12.97;;
1122;SDS011;548;48.778;9.252;2023-07-22T08:19:18;13.20;;;12.70;;
1122;SDS011;548;48.778;9.252;2023-07-22T08:21:44;13.40;;;12.90;;
1122;SDS011;548;48.778;9.252;2023-07-22T08:24:11;13.60;;;13.00;;
1122;SDS011;548;48.778;9.252;2023-07-22T08:26:38;13.63;;;13.03;;
1122;SDS011;548;48.778;9.252;2023-07-22T08:29:05;14.70;;;14.10;;
1122;SDS011;548;48.778;9.252;2023-07-22T08:31:33;13.40;;;12.90;;
1122;SDS011;548;48.778;9.252;2023-07-22T08:34:01;12.77;;;12.37;;
1122;SDS011;548;48.778;9.252;2023-07-22T08:36:27;13.80;;;13.30;;
1122;SDS011;548;48.778;9.252;2023-07-22T08:38:54;13.40;;;12.80;;
1122;SDS011;548;48.778;9.252;2023-07-22T08:41:21;14.27;;;13.73;;
1122;SDS011;548;48.778;9.252;2023-07-22T08:43:50;13.80;;;13.30;;
1122;SDS011;548;48.778;9.252;2023-07-22T08:46:17;14.00;;;13.50;;
1122;SDS011;548;48.778;9.252;2023-07-22T08:48:48;14.10;;;13.60;;
1122;SDS011;548;48.778;9.252;2023-07-22T08:51:19;13.40;;;12.90;;
1122;SDS011;548;48.778;9.252;2023-07-22T08:53:48;14.57;;;14.00;;
1122;SDS011;548;48.778;9.252;2023-07-22T08:56:16;14.13;;;13.63;;
1122;SDS011;548;48.778;9.252;2023-07-22T08:58:43;14.40;;;13.90;;
1122;SDS011;548;48.778;9.252;2023-07-22T09:01:12;12.70;;;12.20;;
1122;SDS011;548;48.778;9.252;2023-07-22T09:03:39;14.33;;;13.73;;
1122;SDS011;548;48.778;9.252;2023-07-22T09:06:09;14.20;;;13.70;;
1122;SDS011;548;48.778;9.252;2023-07-22T09:08:36;15.00;;;14.40;;
1122;SDS011;548;48.778;9.252;2023-07-22T09:11:03;14.60;;;14.10;;
1122;SDS011;548;48.778;9.252;2023-07-22T09:13:31;14.63;;;14.13;;
1122;SDS011;548;48.778;9.252;2023-07-22T09:15:58;14.97;;;14.37;;
1122;SDS011;548;48.778;9.252;2023-07-22T09:18:26;15.07;;;14.47;;
1122;SDS011;548;48.778;9.252;2023-07-22T09:20:52;15.00;;;14.20;;
1122;SDS011;548;48.778;9.252;2023-07-22T09:23:32;14.23;;;13.73;;
1122;SDS011;548;48.778;9.252;2023-07-22T09:26:08;14.80;;;14.00;;
1122;SDS011;548;48.778;9.252;2023-07-22T09:28:46;14.80;;;14.00;;
1122;SDS011;548;48.778;9.252;2023-07-22T09:31:14;13.93;;;13.37;;
1122;SDS011;548;48.778;9.252;2023-07-22T09:33:41;14.27;;;13.60;;
1122;SDS011;548;48.778;9.252;2023-07-22T09:36:09;14.50;;;13.90;;
1122;SDS011;548;48.778;9.252;2023-07-22T09:38:37;13.90;;;13.40;;
1122;SDS011;548;48.778;9.252;2023-07-22T09:41:04;13.60;;;13.00;;
1122;SDS011;548;48.778;9.252;2023-07-22T09:43:31;13.47;;;12.97;;
1122;SDS011;548;48.778;9.252;2023-07-22T09:46:05;13.80;;;13.20;;
1122;SDS011;548;48.778;9.252;2023-07-22T09:48:39;14.30;;;13.77;;
1122;SDS011;548;48.778;9.252;2023-07-22T09:51:06;13.23;;;12.63;;
1122;SDS011;548;48.778;9.252;2023-07-22T09:53:41;14.83;;;13.97;;
1122;SDS011;548;48.778;9.252;2023-07-22T09:56:10;13.63;;;13.03;;
1122;SDS011;548;48.778;9.252;2023-07-22T09:58:37;14.23;;;13.33;;
1122;SDS011;548;48.778;9.252;2023-07-22T10:01:05;14.03;;;13.43;;
1122;SDS011;548;48.778;9.252;2023-07-22T10:03:33;14.40;;;13.80;;
1122;SDS011;548;48.778;9.252;2023-07-22T10:06:03;13.63;;;13.03;;
1122;SDS011;548;48.778;9.252;2023-07-22T10:08:33;13.70;;;13.20;;
1122;SDS011;548;48.778;9.252;2023-07-22T10:11:03;15.03;;;14.20;;
1122;SDS011;548;48.778;9.252;2023-07-22T10:13:35;14.03;;;13.40;;
1122;SDS011;548;48.778;9.252;2023-07-22T10:16:03;14.00;;;13.50;;
1122;SDS011;548;48.778;9.252;2023-07-22T10:18:31;14.30;;;13.80;;
1122;SDS011;548;48.778;9.252;2023-07-22T10:20:59;13.67;;;13.03;;
1122;SDS011;548;48.778;9.252;2023-07-22T10:23:26;14.30;;;13.80;;
1122;SDS011;548;48.778;9.252;2023-07-22T10:25:55;15.00;;;14.40;;
1122;SDS011;548;48.778;9.252;2023-07-22T10:28:25;14.40;;;13.70;;
1122;SDS011;548;48.778;9.252;2023-07-22T10:30:52;14.00;;;13.50;;
1122;SDS011;548;48.778;9.252;2023-07-22T10:33:19;13.10;;;12.70;;
1122;SDS011;548;48.778;9.252;2023-07-22T10:36:01;13.53;;;13.03;;
1122;SDS011;548;48.778;9.252;2023-07-22T10:38:29;13.80;;;13.30;;
1122;SDS011;548;48.778;9.252;2023-07-22T10:40:56;13.00;;;12.57;;
1122;SDS011;548;48.778;9.252;2023-07-22T10:43:24;12.77;;;12.03;;
1122;SDS011;548;48.778;9.252;2023-07-22T10:45:53;13.80;;;13.20;;
1122;SDS011;548;48.778;9.252;2023-07-22T10:48:22;13.30;;;12.90;;
1122;SDS011;548;48.778;9.252;2023-07-22T10:50:52;14.27;;;13.30;;
1122;SDS011;548;48.778;9.252;2023-07-22T10:53:20;14.40;;;13.80;;
1122;SDS011;548;48.778;9.252;2023-07-22T10:56:03;14.23;;;13.73;;
1122;SDS011;548;48.778;9.252;2023-07-22T10:58:33;13.80;;;13.37;;
1122;SDS011;548;48.778;9.252;2023-07-22T11:01:21;14.37;;;13.87;;
1122;SDS011;548;48.778;9.252;2023-07-22T11:06:54;14.17;;;13.67;;
1122;SDS011;548;48.778;9.252;2023-07-22T11:09:37;15.10;;;14.50;;
1122;SDS011;548;48.778;9.252;2023-07-22T11:12:07;14.40;;;13.80;;
1122;SDS011;548;48.778;9.252;2023-07-22T11:14:39;15.03;;;14.50;;
1122;SDS011;548;48.778;9.252;2023-07-22T11:17:12;13.87;;;13.37;;
1122;SDS011;548;48.778;9.252;2023-07-22T11:19:39;14.23;;;13.63;;
1122;SDS011;548;48.778;9.252;2023-07-22T11:22:06;13.83;;;13.33;;
1122;SDS011;548;48.778;9.252;2023-07-22T11:24:33;14.23;;;13.73;;
1122;SDS011;548;48.778;9.252;2023-07-22T11:27:02;15.50;;;14.80;;
1122;SDS011;548;48.778;9.252;2023-07-22T11:29:30;14.23;;;13.50;;
1122;SDS011;548;48.778;9.252;2023-07-22T11:31:58;12.70;;;12.30;;
1122;SDS011;548;48.778;9.252;2023-07-22T11:34:25;14.27;;;13.70;;
1122;SDS011;548;48.778;9.252;2023-07-22T11:36:52;13.33;;;12.83;;
1122;SDS011;548;48.778;9.252;2023-07-22T11:39:20;13.80;;;13.30;;
1122;SDS011;548;48.778;9.252;2023-07-22T11:41:48;13.60;;;13.10;;
1122;SDS011;548;48.778;9.252;2023-07-22T11:44:15;13.97;;;13.47;;
1122;SDS011;548;48.778;9.252;2023-07-22T11:46:46;14.33;;;13.77;;
1122;SDS011;548;48.778;9.252;2023-07-22T11:49:22;15.33;;;13.90;;
1122;SDS011;548;48.778;9.252;2023-07-22T11:51:50;13.37;;;12.87;;
1122;SDS011;548;48.778;9.252;2023-07-22T11:54:18;14.67;;;14.03;;
1122;SDS011;548;48.778;9.252;2023-07-22T11:56:46;14.57;;;13.97;;
1122;SDS011;548;48.778;9.252;2023-07-22T11:59:13;14.00;;;13.50;;
1122;SDS011;548;48.778;9.252;2023-07-22T12:01:42;14.40;;;13.90;;
1122;SDS011;548;48.778;9.252;2023-07-22T12:04:11;15.07;;;14.47;;
1122;SDS011;548;48.778;9.252;2023-07-22T12:06:40;14.97;;;14.43;;
1122;SDS011;548;48.778;9.252;2023-07-22T12:09:07;15.33;;;14.73;;
1122;SDS011;548;48.778;9.252;2023-07-22T12:11:35;14.90;;;14.40;;
1122;SDS011;548;48.778;9.252;2023-07-22T12:14:06;15.10;;;14.40;;
1122;SDS011;548;48.778;9.252;2023-07-22T12:16:34;15.67;;;15.03;;
1122;SDS011;548;48.778;9.252;2023-07-22T12:19:02;15.30;;;14.70;;
1122;SDS011;548;48.778;9.252;2023-07-22T12:21:30;14.43;;;13.83;;
1122;SDS011;548;48.778;9.252;2023-07-22T12:23:59;14.40;;;13.80;;
1122;SDS011;548;48.778;9.252;2023-07-22T12:26:26;14.40;;;13.70;;
1122;SDS011;548;48.778;9.252;2023-07-22T12:28:52;14.67;;;14.00;;
1122;SDS011;548;48.778;9.252;2023-07-22T12:31:20;14.20;;;13.60;;
1122;SDS011;548;48.778;9.252;2023-07-22T12:33:47;13.57;;;12.97;;
1122;SDS011;548;48.778;9.252;2023-07-22T12:36:14;13.67;;;13.17;;
1122;SDS011;548;48.778;9.252;2023-07-22T12:38:40;14.80;;;14.30;;
1122;SDS011;548;48.778;9.252;2023-07-22T12:41:08;14.83;;;14.33;;
1122;SDS011;548;48.778;9.252;2023-07-22T12:43:35;14.33;;;13.83;;
1122;SDS011;548;48.778;9.252;2023-07-22T12:46:02;14.57;;;14.07;;
1122;SDS011;548;48.778;9.252;2023-07-22T12:48:28;16.10;;;15.37;;
1122;SDS011;548;48.778;9.252;2023-07-22T12:50:55;14.20;;;13.70;;
1122;SDS011;548;48.778;9.252;2023-07-22T12:53:22;14.33;;;13.77;;
1122;SDS011;548;48.778;9.252;2023-07-22T12:55:49;14.30;;;13.80;;
1122;SDS011;548;48.778;9.252;2023-07-22T12:58:17;14.50;;;13.80;;
1122;SDS011;548;48.778;9.252;2023-07-22T13:00:43;14.30;;;13.80;;
1122;SDS011;548;48.778;9.252;2023-07-22T13:03:10;14.20;;;13.60;;
1122;SDS011;548;48.778;9.252;2023-07-22T13:05:37;14.80;;;14.20;;
1122;SDS011;548;48.778;9.252;2023-07-22T13:08:03;14.07;;;13.47;;
1122;SDS011;548;48.778;9.252;2023-07-22T13:10:30;13.33;;;12.73;;
1122;SDS011;548;48.778;9.252;2023-07-22T13:12:59;14.10;;;13.40;;
1122;SDS011;548;48.778;9.252;2023-07-22T13:15:30;14.23;;;13.47;;
1122;SDS011;548;48.778;9.252;2023-07-22T13:17:57;13.90;;;13.37;;
1122;SDS011;548;48.778;9.252;2023-07-22T13:20:24;14.33;;;13.73;;
1122;SDS011;548;48.778;9.252;2023-07-22T13:22:50;14.50;;;13.90;;
1122;SDS011;548;48.778;9.252;2023-07-22T13:25:17;14.53;;;14.03;;
1122;SDS011;548;48.778;9.252;2023-07-22T13:27:44;13.80;;;13.30;;
1122;SDS011;548;48.778;9.252;2023-07-22T13:30:11;14.20;;;13.70;;
1122;SDS011;548;48.778;9.252;2023-07-22T13:32:39;14.80;;;14.30;;
1122;SDS011;548;48.778;9.252;2023-07-22T13:35:06;14.00;;;13.50;;
1122;SDS011;548;48.778;9.252;2023-07-22T13:37:33;16.10;;;14.37;;
1122;SDS011;548;48.778;9.252;2023-07-22T13:40:00;14.67;;;14.07;;
1122;SDS011;548;48.778;9.252;2023-07-22T13:42:29;14.77;;;14.00;;
1122;SDS011;548;48.778;9.252;2023-07-22T13:44:56;14.03;;;13.43;;
1122;SDS011;548;48.778;9.252;2023-07-22T13:47:23;14.37;;;13.60;;
1122;SDS011;548;48.778;9.252;2023-07-22T13:49:51;13.77;;;13.17;;
1122;SDS011;548;48.778;9.252;2023-07-22T13:52:18;14.50;;;13.90;;
1122;SDS011;548;48.778;9.252;2023-07-22T13:54:45;13.80;;;13.30;;
1122;SDS011;548;48.778;9.252;2023-07-22T13:57:14;14.10;;;13.50;;
1122;SDS011;548;48.778;9.252;2023-07-22T13:59:41;14.10;;;13.23;;
1122;SDS011;548;48.778;9.252;2023-07-22T14:02:08;14.50;;;13.90;;
1122;SDS011;548;48.778;9.252;2023-07-22T14:04:35;13.47;;;12.87;;
1122;SDS011;548;48.778;9.252;2023-07-22T14:07:04;13.20;;;12.70;;
1122;SDS011;548;48.778;9.252;2023-07-22T14:09:31;14.10;;;13.60;;
1122;SDS011;548;48.778;9.252;2023-07-22T14:11:58;13.60;;;13.00;;
1122;SDS011;548;48.778;9.252;2023-07-22T14:14:24;14.60;;;13.90;;
1122;SDS011;548;48.778;9.252;2023-07-22T14:16:53;14.37;;;13.77;;
1122;SDS011;548;48.778;9.252;2023-07-22T14:19:21;14.10;;;13.40;;
1122;SDS011;548;48.778;9.252;2023-07-22T14:21:47;14.07;;;13.40;;
1122;SDS011;548;48.778;9.252;2023-07-22T14:24:16;13.70;;;13.10;;
1122;SDS011;548;48.778;9.252;2023-07-22T14:26:42;12.80;;;12.20;;
1122;SDS011;548;48.778;9.252;2023-07-22T14:29:09;14.47;;;13.77;;
1122;SDS011;548;48.778;9.252;2023-07-22T14:31:36;14.37;;;13.87;;
1122;SDS011;548;48.778;9.252;2023-07-22T14:34:03;13.20;;;12.70;;
1122;SDS011;548;48.778;9.252;2023-07-22T14:36:29;14.17;;;13.47;;
1122;SDS011;548;48.778;9.252;2023-07-22T14:38:56;13.60;;;12.70;;
1122;SDS011;548;48.778;9.252;2023-07-22T14:41:25;10.90;;;10.40;;
1122;SDS011;548;48.778;9.252;2023-07-22T14:43:51;14.20;;;13.70;;
1122;SDS011;548;48.778;9.252;2023-07-22T14:46:18;13.37;;;12.80;;
1122;SDS011;548;48.778;9.252;2023-07-22T14:48:45;13.57;;;12.97;;
1122;SDS011;548;48.778;9.252;2023-07-22T14:51:12;13.80;;;13.20;;
1122;SDS011;548;48.778;9.252;2023-07-22T14:53:41;13.80;;;13.20;;
1122;SDS011;548;48.778;9.252;2023-07-22T14:56:08;13.30;;;12.80;;
1122;SDS011;548;48.778;9.252;2023-07-22T14:58:36;12.77;;;12.17;;
1122;SDS011;548;48.778;9.252;2023-07-22T15:01:02;14.43;;;13.63;;
1122;SDS011;548;48.778;9.252;2023-07-22T15:03:29;13.90;;;13.30;;
1122;SDS011;548;48.778;9.252;2023-07-22T15:05:56;12.67;;;12.07;;